sensor_id;sensor_type;location;lat;lon;timestamp;pressure;altitude;pressure_sealevel;temperature;humidity
80198;BME280;69517;52.030;7.106;2023-07-13T00:00:29;100522.13;;;23.94;81.21
80198;BME280;69517;52.030;7.106;2023-07-13T00:02:56;100517.78;;;23.93;81.23
80198;BME280;69517;52.030;7.106;2023-07-13T00:05:23;100522.50;;;23.90;81.50
80198;BME280;69517;52.030;7.106;2023-07-13T00:07:50;100523.34;;;23.90;81.18
80198;BME280;69517;52.030;7.106;2023-07-13T00:10:16;100523.47;;;23.89;81.31
80198;BME280;69517;52.030;7.106;2023-07-13T00:12:43;100519.97;;;23.88;81.15
80198;BME280;69517;52.030;7.106;2023-07-13T00:15:11;100516.25;;;23.91;81.26
80198;BME280;69517;52.030;7.106;2023-07-13T00:17:38;100517.91;;;23.92;81.33
80198;BME280;69517;52.030;7.106;2023-07-13T00:20:06;100522.63;;;23.88;81.39
80198;BME280;69517;52.030;7.106;2023-07-13T00:22:33;100523.47;;;23.89;81.41
80198;BME280;69517;52.030;7.106;2023-07-13T00:24:59;100525.84;;;23.92;81.46
80198;BME280;69517;52.030;7.106;2023-07-13T00:27:26;100538.34;;;23.90;81.17
80198;BME280;69517;52.030;7.106;2023-07-13T00:29:54;100531.25;;;23.90;81.47
80198;BME280;69517;52.030;7.106;2023-07-13T00:32:21;100529.59;;;23.89;81.10
80198;BME280;69517;52.030;7.106;2023-07-13T00:34:47;100529.47;;;23.91;81.29
80198;BME280;69517;52.030;7.106;2023-07-13T00:37:15;100533.06;;;23.90;81.30
80198;BME280;69517;52.030;7.106;2023-07-13T00:39:41;100538.47;;;23.88;81.38
80198;BME280;69517;52.030;7.106;2023-07-13T00:42:07;100537.38;;;23.91;81.33
80198;BME280;69517;52.030;7.106;2023-07-13T00:44:33;100531.50;;;23.87;81.40
80198;BME280;69517;52.030;7.106;2023-07-13T00:47:00;100523.69;;;23.85;81.34
80198;BME280;69517;52.030;7.106;2023-07-13T00:49:27;100530.78;;;23.85;81.45
80198;BME280;69517;52.030;7.106;2023-07-13T00:51:54;100526.34;;;23.85;81.30
80198;BME280;69517;52.030;7.106;2023-07-13T00:54:23;100531.63;;;23.85;81.24
80198;BME280;69517;52.030;7.106;2023-07-13T00:56:50;100536.91;;;23.85;81.34
80198;BME280;69517;52.030;7.106;2023-07-13T00:59:18;100530.66;;;23.86;81.29
80198;BME280;69517;52.030;7.106;2023-07-13T01:01:45;100536.06;;;23.85;81.61
80198;BME280;69517;52.030;7.106;2023-07-13T01:04:12;100534.25;;;23.85;81.41
80198;BME280;69517;52.030;7.106;2023-07-13T01:06:39;100537.88;;;23.84;81.50
80198;BME280;69517;52.030;7.106;2023-07-13T01:09:06;100530.78;;;23.85;81.62
80198;BME280;69517;52.030;7.106;2023-07-13T01:11:35;100542.06;;;23.87;81.32
80198;BME280;69517;52.030;7.106;2023-07-13T01:14:01;100535.94;;;23.86;81.22
80198;BME280;69517;52.030;7.106;2023-07-13T01:16:29;100532.47;;;23.86;81.49
80198;BME280;69517;52.030;7.106;2023-07-13T01:18:56;100523.00;;;23.83;81.58
80198;BME280;69517;52.030;7.106;2023-07-13T01:21:25;100533.56;;;23.83;81.45
80198;BME280;69517;52.030;7.106;2023-07-13T01:23:52;100535.81;;;23.88;81.22
80198;BME280;69517;52.030;7.106;2023-07-13T01:26:18;100532.72;;;23.83;81.34
80198;BME280;69517;52.030;7.106;2023-07-13T01:28:44;100531.63;;;23.85;81.49
80198;BME280;69517;52.030;7.106;2023-07-13T01:31:11;100525.66;;;23.83;81.30
80198;BME280;69517;52.030;7.106;2023-07-13T01:33:37;100529.25;;;23.82;81.60
80198;BME280;69517;52.030;7.106;2023-07-13T01:36:05;100526.63;;;23.82;81.67
80198;BME280;69517;52.030;7.106;2023-07-13T01:38:33;100528.28;;;23.83;81.42
80198;BME280;69517;52.030;7.106;2023-07-13T01:40:59;100529.13;;;23.84;81.19
80198;BME280;69517;52.030;7.106;2023-07-13T01:43:25;100535.38;;;23.83;81.51
80198;BME280;69517;52.030;7.106;2023-07-13T01:45:52;100531.78;;;23.84;81.34
80198;BME280;69517;52.030;7.106;2023-07-13T01:48:18;100537.88;;;23.84;81.65
80198;BME280;69517;52.030;7.106;2023-07-13T01:50:45;100531.78;;;23.84;81.38
80198;BME280;69517;52.030;7.106;2023-07-13T01:53:11;100529.25;;;23.82;81.33
80198;BME280;69517;52.030;7.106;2023-07-13T01:55:39;100533.56;;;23.83;81.43
80198;BME280;69517;52.030;7.106;2023-07-13T01:58:05;100533.81;;;23.80;81.62
80198;BME280;69517;52.030;7.106;2023-07-13T02:00:32;100534.66;;;23.81;81.63
80198;BME280;69517;52.030;7.106;2023-07-13T02:02:58;100525.78;;;23.82;81.39
80198;BME280;69517;52.030;7.106;2023-07-13T02:05:25;100524.94;;;23.81;81.50
80198;BME280;69517;52.030;7.106;2023-07-13T02:07:51;100529.50;;;23.79;81.75
80198;BME280;69517;52.030;7.106;2023-07-13T02:10:17;100524.94;;;23.81;81.64
80198;BME280;69517;52.030;7.106;2023-07-13T02:12:45;100522.41;;;23.80;81.62
80198;BME280;69517;52.030;7.106;2023-07-13T02:15:11;100536.31;;;23.82;81.28
80198;BME280;69517;52.030;7.106;2023-07-13T02:17:38;100533.56;;;23.83;81.42
80198;BME280;69517;52.030;7.106;2023-07-13T02:20:04;100529.50;;;23.79;81.64
80198;BME280;69517;52.030;7.106;2023-07-13T02:22:31;100538.13;;;23.81;81.89
80198;BME280;69517;52.030;7.106;2023-07-13T02:24:58;100534.78;;;23.79;81.86
80198;BME280;69517;52.030;7.106;2023-07-13T02:27:24;100539.34;;;23.77;81.59
80198;BME280;69517;52.030;7.106;2023-07-13T02:29:51;100540.03;;;23.79;81.54
80198;BME280;69517;52.030;7.106;2023-07-13T02:32:18;100541.84;;;23.79;81.59
80198;BME280;69517;52.030;7.106;2023-07-13T02:34:44;100539.94;;;23.81;81.85
80198;BME280;69517;52.030;7.106;2023-07-13T02:37:11;100541.03;;;23.78;81.58
80198;BME280;69517;52.030;7.106;2023-07-13T02:39:37;100535.75;;;23.78;81.78
80198;BME280;69517;52.030;7.106;2023-07-13T02:42:03;100535.75;;;23.78;81.80
80198;BME280;69517;52.030;7.106;2023-07-13T02:44:30;100534.91;;;23.78;81.81
80198;BME280;69517;52.030;7.106;2023-07-13T02:46:58;100530.31;;;23.80;81.50
80198;BME280;69517;52.030;7.106;2023-07-13T02:49:24;100532.41;;;23.76;81.77
80198;BME280;69517;52.030;7.106;2023-07-13T02:51:50;100531.44;;;23.77;81.46
80198;BME280;69517;52.030;7.106;2023-07-13T02:54:16;100537.41;;;23.79;81.56
80198;BME280;69517;52.030;7.106;2023-07-13T02:56:43;100539.09;;;23.80;81.55
80198;BME280;69517;52.030;7.106;2023-07-13T02:59:09;100542.84;;;23.78;81.55
80198;BME280;69517;52.030;7.106;2023-07-13T03:01:36;100547.28;;;23.77;81.54
80198;BME280;69517;52.030;7.106;2023-07-13T03:04:03;100544.63;;;23.77;81.59
80198;BME280;69517;52.030;7.106;2023-07-13T03:06:30;100545.59;;;23.76;81.61
80198;BME280;69517;52.030;7.106;2023-07-13T03:08:57;100551.84;;;23.75;81.84
80198;BME280;69517;52.030;7.106;2023-07-13T03:11:23;100547.50;;;23.74;81.87
80198;BME280;69517;52.030;7.106;2023-07-13T03:13:49;100546.56;;;23.75;81.68
80198;BME280;69517;52.030;7.106;2023-07-13T03:16:16;100543.78;;;23.77;81.70
80198;BME280;69517;52.030;7.106;2023-07-13T03:18:45;100542.97;;;23.76;81.58
80198;BME280;69517;52.030;7.106;2023-07-13T03:21:13;100542.00;;;23.77;81.44
80198;BME280;69517;52.030;7.106;2023-07-13T03:23:39;100539.59;;;23.74;81.88
80198;BME280;69517;52.030;7.106;2023-07-13T03:26:06;100555.44;;;23.74;82.00
80198;BME280;69517;52.030;7.106;2023-07-13T03:28:33;100556.03;;;23.78;81.60
80198;BME280;69517;52.030;7.106;2023-07-13T03:31:00;100557.94;;;23.76;81.75
80198;BME280;69517;52.030;7.106;2023-07-13T03:33:27;100559.63;;;23.77;81.77
80198;BME280;69517;52.030;7.106;2023-07-13T03:35:53;100564.06;;;23.76;81.89
80198;BME280;69517;52.030;7.106;2023-07-13T03:38:21;100569.34;;;23.76;81.65
80198;BME280;69517;52.030;7.106;2023-07-13T03:40:47;100564.06;;;23.76;81.58
80198;BME280;69517;52.030;7.106;2023-07-13T03:43:13;100566.25;;;23.71;81.38
80198;BME280;69517;52.030;7.106;2023-07-13T03:45:40;100556.94;;;23.56;82.51
80198;BME280;69517;52.030;7.106;2023-07-13T03:48:07;100563.53;;;23.51;81.05
80198;BME280;69517;52.030;7.106;2023-07-13T03:50:33;100568.81;;;23.39;77.92
80198;BME280;69517;52.030;7.106;2023-07-13T03:52:59;100571.13;;;23.22;71.86
80198;BME280;69517;52.030;7.106;2023-07-13T03:55:27;100577.38;;;22.98;70.52
80198;BME280;69517;52.030;7.106;2023-07-13T03:57:54;100575.44;;;22.78;70.62
80198;BME280;69517;52.030;7.106;2023-07-13T04:00:23;100579.94;;;22.65;70.24
80198;BME280;69517;52.030;7.106;2023-07-13T04:02:50;100577.56;;;22.62;69.36
80198;BME280;69517;52.030;7.106;2023-07-13T04:05:16;100578.41;;;22.62;69.49
80198;BME280;69517;52.030;7.106;2023-07-13T04:07:43;100577.88;;;22.57;69.45
80198;BME280;69517;52.030;7.106;2023-07-13T04:10:09;100586.63;;;22.58;69.38
80198;BME280;69517;52.030;7.106;2023-07-13T04:12:37;100591.31;;;22.65;68.88
80198;BME280;69517;52.030;7.106;2023-07-13T04:15:03;100585.84;;;22.69;70.03
80198;BME280;69517;52.030;7.106;2023-07-13T04:17:30;100596.03;;;22.73;69.41
80198;BME280;69517;52.030;7.106;2023-07-13T04:19:56;100592.94;;;22.79;69.28
80198;BME280;69517;52.030;7.106;2023-07-13T04:22:23;100590.19;;;22.81;69.71
80198;BME280;69517;52.030;7.106;2023-07-13T04:24:49;100590.19;;;22.81;68.68
80198;BME280;69517;52.030;7.106;2023-07-13T04:27:15;100588.25;;;22.83;69.15
80198;BME280;69517;52.030;7.106;2023-07-13T04:29:43;100596.06;;;22.84;69.14
80198;BME280;69517;52.030;7.106;2023-07-13T04:32:09;100588.50;;;22.80;68.98
80198;BME280;69517;52.030;7.106;2023-07-13T04:34:35;100593.88;;;22.78;69.04
80198;BME280;69517;52.030;7.106;2023-07-13T04:37:02;100589.56;;;22.77;68.68
80198;BME280;69517;52.030;7.106;2023-07-13T04:39:29;100597.38;;;22.79;69.07
80198;BME280;69517;52.030;7.106;2023-07-13T04:41:55;100602.84;;;22.76;68.77
80198;BME280;69517;52.030;7.106;2023-07-13T04:44:22;100600.38;;;22.74;68.89
80198;BME280;69517;52.030;7.106;2023-07-13T04:46:49;100602.03;;;22.75;69.01
80198;BME280;69517;52.030;7.106;2023-07-13T04:49:15;100602.28;;;22.72;69.02
80198;BME280;69517;52.030;7.106;2023-07-13T04:51:42;100601.41;;;22.72;68.94
80198;BME280;69517;52.030;7.106;2023-07-13T04:54:08;100590.97;;;22.70;68.96
80198;BME280;69517;52.030;7.106;2023-07-13T04:56:34;100602.44;;;22.69;69.08
80198;BME280;69517;52.030;7.106;2023-07-13T04:59:01;100604.28;;;22.69;69.52
80198;BME280;69517;52.030;7.106;2023-07-13T05:01:27;100601.50;;;22.70;69.40
80198;BME280;69517;52.030;7.106;2023-07-13T05:03:55;100607.13;;;22.65;69.04
80198;BME280;69517;52.030;7.106;2023-07-13T05:06:23;100607.13;;;22.65;68.51
80198;BME280;69517;52.030;7.106;2023-07-13T05:08:49;100616.72;;;22.66;69.19
80198;BME280;69517;52.030;7.106;2023-07-13T05:11:17;100619.47;;;22.65;68.60
80198;BME280;69517;52.030;7.106;2023-07-13T05:13:44;100619.56;;;22.63;68.96
80198;BME280;69517;52.030;7.106;2023-07-13T05:16:10;100624.00;;;22.63;69.29
80198;BME280;69517;52.030;7.106;2023-07-13T05:18:37;100626.53;;;22.64;69.36
80198;BME280;69517;52.030;7.106;2023-07-13T05:21:05;100626.53;;;22.64;68.57
80198;BME280;69517;52.030;7.106;2023-07-13T05:23:33;100629.56;;;22.36;69.61
80198;BME280;69517;52.030;7.106;2023-07-13T05:25:59;100624.41;;;22.35;70.24
80198;BME280;69517;52.030;7.106;2023-07-13T05:28:26;100630.63;;;22.34;70.41
80198;BME280;69517;52.030;7.106;2023-07-13T05:30:53;100632.81;;;21.92;71.51
80198;BME280;69517;52.030;7.106;2023-07-13T05:33:20;100632.41;;;21.98;71.60
80198;BME280;69517;52.030;7.106;2023-07-13T05:35:46;100636.22;;;22.18;71.76
80198;BME280;69517;52.030;7.106;2023-07-13T05:38:14;100633.34;;;22.56;70.55
80198;BME280;69517;52.030;7.106;2023-07-13T05:40:42;100643.38;;;22.75;69.98
80198;BME280;69517;52.030;7.106;2023-07-13T05:43:08;100643.13;;;22.89;69.92
80198;BME280;69517;52.030;7.106;2023-07-13T05:45:35;100636.44;;;22.96;70.42
80198;BME280;69517;52.030;7.106;2023-07-13T05:48:01;100635.13;;;23.01;70.38
80198;BME280;69517;52.030;7.106;2023-07-13T05:50:27;100644.59;;;23.04;70.90
80198;BME280;69517;52.030;7.106;2023-07-13T05:52:53;100645.09;;;23.09;71.14
80198;BME280;69517;52.030;7.106;2023-07-13T05:55:21;100644.72;;;23.14;71.60
80198;BME280;69517;52.030;7.106;2023-07-13T05:57:47;100647.13;;;23.17;71.70
80198;BME280;69517;52.030;7.106;2023-07-13T06:00:14;100648.78;;;23.18;71.56
80198;BME280;69517;52.030;7.106;2023-07-13T06:02:40;100647.00;;;23.18;72.04
80198;BME280;69517;52.030;7.106;2023-07-13T06:05:07;100647.13;;;23.17;72.37
80198;BME280;69517;52.030;7.106;2023-07-13T06:07:33;100654.78;;;23.20;72.29
80198;BME280;69517;52.030;7.106;2023-07-13T06:09:59;100654.56;;;23.23;72.61
80198;BME280;69517;52.030;7.106;2023-07-13T06:12:27;100665.81;;;23.25;72.54
80198;BME280;69517;52.030;7.106;2023-07-13T06:14:53;100658.84;;;23.24;73.06
80198;BME280;69517;52.030;7.106;2023-07-13T06:17:20;100665.72;;;23.26;72.95
80198;BME280;69517;52.030;7.106;2023-07-13T06:19:46;100667.41;;;23.27;73.33
80198;BME280;69517;52.030;7.106;2023-07-13T06:22:12;100679.84;;;23.25;73.50
80198;BME280;69517;52.030;7.106;2023-07-13T06:24:38;100677.00;;;23.28;73.59
80198;BME280;69517;52.030;7.106;2023-07-13T06:27:05;100683.59;;;23.34;73.78
80198;BME280;69517;52.030;7.106;2023-07-13T06:29:33;100687.06;;;23.34;73.73
80198;BME280;69517;52.030;7.106;2023-07-13T06:31:59;100695.56;;;23.27;73.66
80198;BME280;69517;52.030;7.106;2023-07-13T06:34:25;100701.69;;;23.27;74.06
80198;BME280;69517;52.030;7.106;2023-07-13T06:36:52;100694.84;;;23.25;73.11
80198;BME280;69517;52.030;7.106;2023-07-13T06:39:18;100701.78;;;23.26;72.65
80198;BME280;69517;52.030;7.106;2023-07-13T06:41:44;100700.09;;;23.25;72.23
80198;BME280;69517;52.030;7.106;2023-07-13T06:44:10;100697.13;;;23.29;73.26
80198;BME280;69517;52.030;7.106;2023-07-13T06:46:38;100718.72;;;23.23;72.56
80198;BME280;69517;52.030;7.106;2023-07-13T06:49:04;100705.75;;;23.31;73.39
80198;BME280;69517;52.030;7.106;2023-07-13T06:51:31;100707.81;;;23.39;73.58
80198;BME280;69517;52.030;7.106;2023-07-13T06:53:57;100708.66;;;23.39;73.12
80198;BME280;69517;52.030;7.106;2023-07-13T06:56:23;100709.97;;;23.34;73.91
80198;BME280;69517;52.030;7.106;2023-07-13T06:58:49;100706.59;;;23.32;72.79
80198;BME280;69517;52.030;7.106;2023-07-13T07:01:15;100711.88;;;23.32;72.79
80198;BME280;69517;52.030;7.106;2023-07-13T07:03:43;100715.34;;;23.21;72.95
80198;BME280;69517;52.030;7.106;2023-07-13T07:06:12;100720.25;;;23.15;73.50
80198;BME280;69517;52.030;7.106;2023-07-13T07:08:38;100722.63;;;23.18;73.20
80198;BME280;69517;52.030;7.106;2023-07-13T07:11:05;100723.16;;;23.23;72.82
80198;BME280;69517;52.030;7.106;2023-07-13T07:13:31;100713.78;;;23.30;73.08
80198;BME280;69517;52.030;7.106;2023-07-13T07:15:57;100717.16;;;23.32;72.38
80198;BME280;69517;52.030;7.106;2023-07-13T07:18:25;100724.09;;;23.33;72.56
80198;BME280;69517;52.030;7.106;2023-07-13T07:20:52;100718.84;;;23.33;72.82
80198;BME280;69517;52.030;7.106;2023-07-13T07:23:19;100725.16;;;23.30;72.45
80198;BME280;69517;52.030;7.106;2023-07-13T07:25:45;100725.31;;;23.29;73.36
80198;BME280;69517;52.030;7.106;2023-07-13T07:28:12;100732.13;;;23.31;74.01
80198;BME280;69517;52.030;7.106;2023-07-13T07:30:41;100724.47;;;23.39;73.92
80198;BME280;69517;52.030;7.106;2023-07-13T07:33:07;100727.69;;;23.43;73.70
80198;BME280;69517;52.030;7.106;2023-07-13T07:35:34;100727.59;;;23.44;74.16
80198;BME280;69517;52.030;7.106;2023-07-13T07:38:01;100731.06;;;23.45;74.07
80198;BME280;69517;52.030;7.106;2023-07-13T07:40:28;100727.69;;;23.43;74.41
80198;BME280;69517;52.030;7.106;2023-07-13T07:42:54;100727.47;;;23.46;74.55
80198;BME280;69517;52.030;7.106;2023-07-13T07:45:20;100728.09;;;23.50;74.24
80198;BME280;69517;52.030;7.106;2023-07-13T07:47:47;100728.09;;;23.50;74.16
80198;BME280;69517;52.030;7.106;2023-07-13T07:50:13;100732.69;;;23.48;74.75
80198;BME280;69517;52.030;7.106;2023-07-13T07:52:40;100728.00;;;23.51;74.36
80198;BME280;69517;52.030;7.106;2023-07-13T07:55:08;100730.59;;;23.40;74.26
80198;BME280;69517;52.030;7.106;2023-07-13T07:57:34;100729.84;;;23.27;74.28
80198;BME280;69517;52.030;7.106;2023-07-13T08:00:00;100728.78;;;23.29;73.53
80198;BME280;69517;52.030;7.106;2023-07-13T08:02:26;100724.94;;;23.33;73.17
80198;BME280;69517;52.030;7.106;2023-07-13T08:04:53;100729.16;;;23.36;73.48
80198;BME280;69517;52.030;7.106;2023-07-13T08:07:19;100731.44;;;23.40;73.10
80198;BME280;69517;52.030;7.106;2023-07-13T08:09:45;100736.59;;;23.42;73.37
80198;BME280;69517;52.030;7.106;2023-07-13T08:12:14;100735.19;;;23.49;73.38
80198;BME280;69517;52.030;7.106;2023-07-13T08:14:40;100729.91;;;23.49;73.53
80198;BME280;69517;52.030;7.106;2023-07-13T08:17:06;100729.91;;;23.49;74.19
80198;BME280;69517;52.030;7.106;2023-07-13T08:19:32;100726.09;;;23.53;73.96
80198;BME280;69517;52.030;7.106;2023-07-13T08:21:59;100720.31;;;23.48;74.42
80198;BME280;69517;52.030;7.106;2023-07-13T08:24:25;100726.19;;;23.52;74.52
80198;BME280;69517;52.030;7.106;2023-07-13T08:26:51;100723.66;;;23.50;74.44
80198;BME280;69517;52.030;7.106;2023-07-13T08:29:20;100729.06;;;23.49;74.47
80198;BME280;69517;52.030;7.106;2023-07-13T08:31:46;100729.19;;;23.47;74.61
80198;BME280;69517;52.030;7.106;2023-07-13T08:34:12;100727.16;;;23.51;75.19
80198;BME280;69517;52.030;7.106;2023-07-13T08:36:39;100729.91;;;23.49;74.92
80198;BME280;69517;52.030;7.106;2023-07-13T08:39:06;100732.41;;;23.51;75.11
80198;BME280;69517;52.030;7.106;2023-07-13T08:41:32;100734.09;;;23.52;75.15
80198;BME280;69517;52.030;7.106;2023-07-13T08:43:59;100724.41;;;23.52;75.22
80198;BME280;69517;52.030;7.106;2023-07-13T08:46:32;100727.16;;;23.51;75.40
80198;BME280;69517;52.030;7.106;2023-07-13T08:49:01;100722.13;;;23.48;75.32
80198;BME280;69517;52.030;7.106;2023-07-13T08:51:31;100728.34;;;23.47;75.16
80198;BME280;69517;52.030;7.106;2023-07-13T08:54:01;100726.28;;;23.39;74.87
80198;BME280;69517;52.030;7.106;2023-07-13T08:56:29;100727.47;;;23.46;74.74
80198;BME280;69517;52.030;7.106;2023-07-13T08:58:56;100729.63;;;23.41;74.16
80198;BME280;69517;52.030;7.106;2023-07-13T09:01:24;100725.22;;;23.41;74.08
80198;BME280;69517;52.030;7.106;2023-07-13T09:03:57;100731.06;;;23.45;74.14
80198;BME280;69517;52.030;7.106;2023-07-13T09:06:27;100725.06;;;23.43;74.36
80198;BME280;69517;52.030;7.106;2023-07-13T09:08:58;100724.38;;;23.41;74.97
80198;BME280;69517;52.030;7.106;2023-07-13T09:11:35;100720.03;;;23.40;74.40
80198;BME280;69517;52.030;7.106;2023-07-13T09:14:06;100715.34;;;23.43;75.23
80198;BME280;69517;52.030;7.106;2023-07-13T09:16:39;100722.56;;;23.41;74.58
80198;BME280;69517;52.030;7.106;2023-07-13T09:19:20;100728.19;;;23.37;74.57
80198;BME280;69517;52.030;7.106;2023-07-13T09:21:48;100735.13;;;23.38;74.01
80198;BME280;69517;52.030;7.106;2023-07-13T09:24:26;100744.00;;;23.37;74.01
80198;BME280;69517;52.030;7.106;2023-07-13T09:26:54;100740.31;;;23.39;73.97
80198;BME280;69517;52.030;7.106;2023-07-13T09:29:23;100733.22;;;23.40;73.93
80198;BME280;69517;52.030;7.106;2023-07-13T09:31:53;100739.34;;;23.40;73.88
80198;BME280;69517;52.030;7.106;2023-07-13T09:34:21;100739.34;;;23.40;74.06
80198;BME280;69517;52.030;7.106;2023-07-13T09:36:47;100743.91;;;23.38;73.89
80198;BME280;69517;52.030;7.106;2023-07-13T09:39:14;100743.69;;;23.41;73.87
80198;BME280;69517;52.030;7.106;2023-07-13T09:41:41;100744.75;;;23.39;73.75
80198;BME280;69517;52.030;7.106;2023-07-13T09:44:12;100743.78;;;23.40;74.11
80198;BME280;69517;52.030;7.106;2023-07-13T09:46:39;100749.78;;;23.42;73.58
80198;BME280;69517;52.030;7.106;2023-07-13T09:49:09;100750.00;;;23.39;73.95
80198;BME280;69517;52.030;7.106;2023-07-13T09:51:37;100750.00;;;23.39;73.80
80198;BME280;69517;52.030;7.106;2023-07-13T09:54:04;100745.59;;;23.39;73.87
80198;BME280;69517;52.030;7.106;2023-07-13T09:56:30;100747.38;;;23.39;73.80
80198;BME280;69517;52.030;7.106;2023-07-13T09:58:58;100743.78;;;23.40;73.77
80198;BME280;69517;52.030;7.106;2023-07-13T10:01:31;100749.16;;;23.38;74.08
80198;BME280;69517;52.030;7.106;2023-07-13T10:03:57;100741.38;;;23.37;73.92
80198;BME280;69517;52.030;7.106;2023-07-13T10:06:24;100748.69;;;23.33;74.42
80198;BME280;69517;52.030;7.106;2023-07-13T10:08:52;100741.84;;;23.31;74.16
80198;BME280;69517;52.030;7.106;2023-07-13T10:11:19;100745.00;;;23.36;74.29
80198;BME280;69517;52.030;7.106;2023-07-13T10:13:48;100745.59;;;23.39;74.66
80198;BME280;69517;52.030;7.106;2023-07-13T10:16:17;100745.59;;;23.39;75.11
80198;BME280;69517;52.030;7.106;2023-07-13T10:18:45;100737.56;;;23.41;74.81
80198;BME280;69517;52.030;7.106;2023-07-13T10:21:13;100737.56;;;23.41;75.33
80198;BME280;69517;52.030;7.106;2023-07-13T10:23:40;100747.00;;;23.43;75.36
80198;BME280;69517;52.030;7.106;2023-07-13T10:26:11;100738.03;;;23.46;75.39
80198;BME280;69517;52.030;7.106;2023-07-13T10:28:39;100739.59;;;23.49;75.46
80198;BME280;69517;52.030;7.106;2023-07-13T10:31:08;100734.47;;;23.47;75.58
80198;BME280;69517;52.030;7.106;2023-07-13T10:33:37;100738.81;;;23.48;75.75
80198;BME280;69517;52.030;7.106;2023-07-13T10:36:05;100736.97;;;23.49;75.63
80198;BME280;69517;52.030;7.106;2023-07-13T10:38:37;100739.75;;;23.47;76.00
80198;BME280;69517;52.030;7.106;2023-07-13T10:41:05;100736.34;;;23.45;76.10
80198;BME280;69517;52.030;7.106;2023-07-13T10:43:35;100737.56;;;23.41;75.97
80198;BME280;69517;52.030;7.106;2023-07-13T10:46:03;100726.09;;;23.53;75.47
80198;BME280;69517;52.030;7.106;2023-07-13T10:48:30;100727.69;;;23.43;75.54
80198;BME280;69517;52.030;7.106;2023-07-13T10:50:57;100721.72;;;23.41;74.94
80198;BME280;69517;52.030;7.106;2023-07-13T10:53:27;100731.06;;;23.45;74.49
80198;BME280;69517;52.030;7.106;2023-07-13T10:55:55;100733.13;;;23.41;74.67
80198;BME280;69517;52.030;7.106;2023-07-13T10:58:28;100728.69;;;23.42;75.08
80198;BME280;69517;52.030;7.106;2023-07-13T11:00:57;100728.81;;;23.40;75.37
80198;BME280;69517;52.030;7.106;2023-07-13T11:03:25;100737.31;;;23.44;75.39
80198;BME280;69517;52.030;7.106;2023-07-13T11:06:03;100726.56;;;23.47;75.55
80198;BME280;69517;52.030;7.106;2023-07-13T11:08:34;100729.06;;;23.49;75.86
80198;BME280;69517;52.030;7.106;2023-07-13T11:11:02;100726.91;;;23.54;75.70
80198;BME280;69517;52.030;7.106;2023-07-13T11:13:38;100729.41;;;23.55;75.32
80198;BME280;69517;52.030;7.106;2023-07-13T11:16:37;100725.81;;;23.56;75.99
80198;BME280;69517;52.030;7.106;2023-07-13T11:22:02;100725.34;;;23.62;76.06
80198;BME280;69517;52.030;7.106;2023-07-13T11:24:29;100725.59;;;23.59;76.42
80198;BME280;69517;52.030;7.106;2023-07-13T11:26:56;100724.88;;;23.57;76.68
80198;BME280;69517;52.030;7.106;2023-07-13T11:29:24;100725.59;;;23.59;76.24
80198;BME280;69517;52.030;7.106;2023-07-13T11:31:54;100727.63;;;23.56;76.58
80198;BME280;69517;52.030;7.106;2023-07-13T11:34:21;100731.09;;;23.56;76.64
80198;BME280;69517;52.030;7.106;2023-07-13T11:36:49;100733.03;;;23.54;76.60
80198;BME280;69517;52.030;7.106;2023-07-13T11:39:17;100757.59;;;23.55;76.87
80198;BME280;69517;52.030;7.106;2023-07-13T11:41:45;100769.72;;;23.57;76.83
80198;BME280;69517;52.030;7.106;2023-07-13T11:44:16;100761.09;;;23.55;76.71
80198;BME280;69517;52.030;7.106;2023-07-13T11:46:46;100767.22;;;23.56;76.70
80198;BME280;69517;52.030;7.106;2023-07-13T11:49:16;100765.41;;;23.56;76.80
80198;BME280;69517;52.030;7.106;2023-07-13T11:51:43;100768.03;;;23.56;77.01
80198;BME280;69517;52.030;7.106;2023-07-13T11:54:15;100762.06;;;23.54;77.07
80198;BME280;69517;52.030;7.106;2023-07-13T11:56:43;100758.59;;;23.54;77.04
80198;BME280;69517;52.030;7.106;2023-07-13T11:59:11;100761.09;;;23.55;77.10
80198;BME280;69517;52.030;7.106;2023-07-13T12:01:42;100754.16;;;23.54;77.21
80198;BME280;69517;52.030;7.106;2023-07-13T12:04:09;100752.09;;;23.58;77.21
80198;BME280;69517;52.030;7.106;2023-07-13T12:06:47;100757.50;;;23.56;76.86
80198;BME280;69517;52.030;7.106;2023-07-13T12:09:18;100755.81;;;23.55;77.32
80198;BME280;69517;52.030;7.106;2023-07-13T12:11:50;100751.38;;;23.56;76.94
80198;BME280;69517;52.030;7.106;2023-07-13T12:14:16;100745.03;;;23.58;76.88
80198;BME280;69517;52.030;7.106;2023-07-13T12:16:44;100753.91;;;23.57;77.23
80198;BME280;69517;52.030;7.106;2023-07-13T12:19:14;100756.78;;;23.54;77.39
80198;BME280;69517;52.030;7.106;2023-07-13T12:21:42;100746.94;;;23.56;77.44
80198;BME280;69517;52.030;7.106;2023-07-13T12:24:14;100745.25;;;23.55;77.57
80198;BME280;69517;52.030;7.106;2023-07-13T12:26:41;100751.38;;;23.56;77.44
80198;BME280;69517;52.030;7.106;2023-07-13T12:29:10;100743.47;;;23.56;77.64
80198;BME280;69517;52.030;7.106;2023-07-13T12:31:40;100747.03;;;23.55;77.44
80198;BME280;69517;52.030;7.106;2023-07-13T12:34:08;100752.47;;;23.53;77.59
80198;BME280;69517;52.030;7.106;2023-07-13T12:36:37;100756.66;;;23.56;77.66
80198;BME280;69517;52.030;7.106;2023-07-13T12:39:06;100763.63;;;23.57;77.11
80198;BME280;69517;52.030;7.106;2023-07-13T12:41:39;100760.03;;;23.58;77.01
80198;BME280;69517;52.030;7.106;2023-07-13T12:44:08;100762.78;;;23.56;77.44
80198;BME280;69517;52.030;7.106;2023-07-13T12:46:36;100760.97;;;23.57;77.23
80198;BME280;69517;52.030;7.106;2023-07-13T12:49:04;100767.09;;;23.57;77.46
80198;BME280;69517;52.030;7.106;2023-07-13T12:51:32;100768.53;;;23.61;77.25
80198;BME280;69517;52.030;7.106;2023-07-13T12:54:05;100776.69;;;23.58;77.52